sensor_id;sensor_type;location;lat;lon;timestamp;temperature;humidity
27164;DHT22;14685;50.618;7.024;2023-11-21T00:01:33;12.20;99.90
27164;DHT22;14685;50.618;7.024;2023-11-21T00:04:01;12.20;99.90
27164;DHT22;14685;50.618;7.024;2023-11-21T00:06:28;12.20;99.90
27164;DHT22;14685;50.618;7.024;2023-11-21T00:08:57;12.20;99.90
27164;DHT22;14685;50.618;7.024;2023-11-21T00:11:24;12.20;99.90
27164;DHT22;14685;50.618;7.024;2023-11-21T00:13:52;12.20;99.90
27164;DHT22;14685;50.618;7.024;2023-11-21T00:16:19;12.30;99.90
27164;DHT22;14685;50.618;7.024;2023-11-21T00:18:46;12.20;99.90
27164;DHT22;14685;50.618;7.024;2023-11-21T00:21:13;12.30;99.90
27164;DHT22;14685;50.618;7.024;2023-11-21T00:23:40;12.30;99.90
27164;DHT22;14685;50.618;7.024;2023-11-21T00:26:07;12.30;99.90
27164;DHT22;14685;50.618;7.024;2023-11-21T00:28:34;12.20;99.90
27164;DHT22;14685;50.618;7.024;2023-11-21T00:31:01;12.30;99.90
27164;DHT22;14685;50.618;7.024;2023-11-21T00:33:28;12.30;99.90
27164;DHT22;14685;50.618;7.024;2023-11-21T00:35:55;12.30;99.90
27164;DHT22;14685;50.618;7.024;2023-11-21T00:38:22;12.20;99.90
27164;DHT22;14685;50.618;7.024;2023-11-21T00:40:49;12.30;99.90
27164;DHT22;14685;50.618;7.024;2023-11-21T00:43:16;12.30;99.90
27164;DHT22;14685;50.618;7.024;2023-11-21T00:45:42;12.30;99.90
27164;DHT22;14685;50.618;7.024;2023-11-21T00:48:09;12.30;99.90
27164;DHT22;14685;50.618;7.024;2023-11-21T00:50:36;12.30;99.90
27164;DHT22;14685;50.618;7.024;2023-11-21T00:53:04;12.30;99.90
27164;DHT22;14685;50.618;7.024;2023-11-21T00:55:33;12.30;99.90
27164;DHT22;14685;50.618;7.024;2023-11-21T00:58:00;12.30;99.90
27164;DHT22;14685;50.618;7.024;2023-11-21T01:00:30;12.30;99.90
27164;DHT22;14685;50.618;7.024;2023-11-21T01:02:57;12.30;99.90
27164;DHT22;14685;50.618;7.024;2023-11-21T01:05:23;12.30;99.90
27164;DHT22;14685;50.618;7.024;2023-11-21T01:07:51;12.30;99.90
27164;DHT22;14685;50.618;7.024;2023-11-21T01:10:18;12.30;99.90
27164;DHT22;14685;50.618;7.024;2023-11-21T01:12:45;12.30;99.90
27164;DHT22;14685;50.618;7.024;2023-11-21T01:15:12;12.30;99.90
27164;DHT22;14685;50.618;7.024;2023-11-21T01:17:39;12.30;99.90
27164;DHT22;14685;50.618;7.024;2023-11-21T01:20:08;12.30;99.90
27164;DHT22;14685;50.618;7.024;2023-11-21T01:22:41;12.30;99.90
27164;DHT22;14685;50.618;7.024;2023-11-21T01:25:09;12.30;99.90
27164;DHT22;14685;50.618;7.024;2023-11-21T01:27:38;12.40;99.90
27164;DHT22;14685;50.618;7.024;2023-11-21T01:30:05;12.40;99.90
27164;DHT22;14685;50.618;7.024;2023-11-21T01:32:34;12.40;99.90
27164;DHT22;14685;50.618;7.024;2023-11-21T01:35:01;12.40;99.90
27164;DHT22;14685;50.618;7.024;2023-11-21T01:37:29;12.30;99.90
27164;DHT22;14685;50.618;7.024;2023-11-21T01:39:58;12.40;99.90
27164;DHT22;14685;50.618;7.024;2023-11-21T01:42:27;12.40;99.90
27164;DHT22;14685;50.618;7.024;2023-11-21T01:44:56;12.40;99.90
27164;DHT22;14685;50.618;7.024;2023-11-21T01:47:22;12.40;99.90
27164;DHT22;14685;50.618;7.024;2023-11-21T01:49:50;12.40;99.90
27164;DHT22;14685;50.618;7.024;2023-11-21T01:52:17;12.40;99.90
27164;DHT22;14685;50.618;7.024;2023-11-21T01:54:44;12.40;99.90
27164;DHT22;14685;50.618;7.024;2023-11-21T01:57:11;12.40;99.90
27164;DHT22;14685;50.618;7.024;2023-11-21T01:59:38;12.40;99.90
27164;DHT22;14685;50.618;7.024;2023-11-21T02:02:08;12.40;99.90
27164;DHT22;14685;50.618;7.024;2023-11-21T02:04:37;12.40;99.90
27164;DHT22;14685;50.618;7.024;2023-11-21T02:07:04;12.40;99.90
27164;DHT22;14685;50.618;7.024;2023-11-21T02:09:32;12.40;99.90
27164;DHT22;14685;50.618;7.024;2023-11-21T02:12:01;12.40;99.90
27164;DHT22;14685;50.618;7.024;2023-11-21T02:14:28;12.40;99.90
27164;DHT22;14685;50.618;7.024;2023-11-21T02:16:55;12.40;99.90
27164;DHT22;14685;50.618;7.024;2023-11-21T02:19:24;12.40;99.90
27164;DHT22;14685;50.618;7.024;2023-11-21T02:21:57;12.40;99.90
27164;DHT22;14685;50.618;7.024;2023-11-21T02:24:30;12.40;99.90
27164;DHT22;14685;50.618;7.024;2023-11-21T02:26:57;12.40;99.90
27164;DHT22;14685;50.618;7.024;2023-11-21T02:29:24;12.40;99.90
27164;DHT22;14685;50.618;7.024;2023-11-21T02:31:55;12.40;99.90
27164;DHT22;14685;50.618;7.024;2023-11-21T02:34:23;12.40;99.90
27164;DHT22;14685;50.618;7.024;2023-11-21T02:36:52;12.40;99.90
27164;DHT22;14685;50.618;7.024;2023-11-21T02:39:19;12.40;99.90
27164;DHT22;14685;50.618;7.024;2023-11-21T02:41:49;12.40;99.90
27164;DHT22;14685;50.618;7.024;2023-11-21T02:44:16;12.40;99.90
27164;DHT22;14685;50.618;7.024;2023-11-21T02:46:43;12.40;99.90
27164;DHT22;14685;50.618;7.024;2023-11-21T02:49:10;12.40;99.90
27164;DHT22;14685;50.618;7.024;2023-11-21T02:51:38;12.40;99.90
27164;DHT22;14685;50.618;7.024;2023-11-21T02:54:06;12.40;99.90
27164;DHT22;14685;50.618;7.024;2023-11-21T02:56:33;12.40;99.90
27164;DHT22;14685;50.618;7.024;2023-11-21T02:59:00;12.40;99.90
27164;DHT22;14685;50.618;7.024;2023-11-21T03:01:27;12.40;99.90
27164;DHT22;14685;50.618;7.024;2023-11-21T03:03:55;12.40;99.90
27164;DHT22;14685;50.618;7.024;2023-11-21T03:06:25;12.40;99.90
27164;DHT22;14685;50.618;7.024;2023-11-21T03:08:52;12.40;99.90
27164;DHT22;14685;50.618;7.024;2023-11-21T03:11:19;12.40;99.90
27164;DHT22;14685;50.618;7.024;2023-11-21T03:13:46;12.40;99.90
27164;DHT22;14685;50.618;7.024;2023-11-21T03:16:14;12.40;99.90
27164;DHT22;14685;50.618;7.024;2023-11-21T03:18:41;12.40;99.90
27164;DHT22;14685;50.618;7.024;2023-11-21T03:21:08;12.40;99.90
27164;DHT22;14685;50.618;7.024;2023-11-21T03:23:36;12.40;99.90
27164;DHT22;14685;50.618;7.024;2023-11-21T03:26:03;12.40;99.90
27164;DHT22;14685;50.618;7.024;2023-11-21T03:28:31;12.40;99.90
27164;DHT22;14685;50.618;7.024;2023-11-21T03:30:58;12.40;99.90
27164;DHT22;14685;50.618;7.024;2023-11-21T03:33:25;12.40;99.90
27164;DHT22;14685;50.618;7.024;2023-11-21T03:35:53;12.40;99.90
27164;DHT22;14685;50.618;7.024;2023-11-21T03:38:21;12.40;99.90
27164;DHT22;14685;50.618;7.024;2023-11-21T03:40:48;12.40;99.90
27164;DHT22;14685;50.618;7.024;2023-11-21T03:43:15;12.40;99.90
27164;DHT22;14685;50.618;7.024;2023-11-21T03:45:42;12.40;99.90
27164;DHT22;14685;50.618;7.024;2023-11-21T03:48:09;12.40;99.90
27164;DHT22;14685;50.618;7.024;2023-11-21T03:50:36;12.40;99.90
27164;DHT22;14685;50.618;7.024;2023-11-21T03:53:02;12.40;99.90
27164;DHT22;14685;50.618;7.024;2023-11-21T03:55:30;12.40;99.90
27164;DHT22;14685;50.618;7.024;2023-11-21T03:57:58;12.40;99.90
27164;DHT22;14685;50.618;7.024;2023-11-21T04:00:26;12.40;99.90
27164;DHT22;14685;50.618;7.024;2023-11-21T04:02:57;12.40;99.90
27164;DHT22;14685;50.618;7.024;2023-11-21T04:05:24;12.40;99.90
27164;DHT22;14685;50.618;7.024;2023-11-21T04:07:51;12.40;99.90
27164;DHT22;14685;50.618;7.024;2023-11-21T04:10:19;12.40;99.90
27164;DHT22;14685;50.618;7.024;2023-11-21T04:12:46;12.50;99.90
27164;DHT22;14685;50.618;7.024;2023-11-21T04:15:13;12.40;99.90
27164;DHT22;14685;50.618;7.024;2023-11-21T04:17:41;12.40;99.90
27164;DHT22;14685;50.618;7.024;2023-11-21T04:20:09;12.30;99.90
27164;DHT22;14685;50.618;7.024;2023-11-21T04:22:41;12.40;99.90
27164;DHT22;14685;50.618;7.024;2023-11-21T04:25:12;12.40;99.90
27164;DHT22;14685;50.618;7.024;2023-11-21T04:27:41;12.40;99.90
27164;DHT22;14685;50.618;7.024;2023-11-21T04:30:11;12.30;99.90
27164;DHT22;14685;50.618;7.024;2023-11-21T04:32:39;12.30;99.90
27164;DHT22;14685;50.618;7.024;2023-11-21T04:35:07;12.40;99.90
27164;DHT22;14685;50.618;7.024;2023-11-21T04:37:35;12.30;99.90
27164;DHT22;14685;50.618;7.024;2023-11-21T04:40:03;12.30;99.90
27164;DHT22;14685;50.618;7.024;2023-11-21T04:42:37;12.30;99.90
27164;DHT22;14685;50.618;7.024;2023-11-21T04:45:08;12.30;99.90
27164;DHT22;14685;50.618;7.024;2023-11-21T04:47:36;12.30;99.90
27164;DHT22;14685;50.618;7.024;2023-11-21T04:50:04;12.30;99.90
27164;DHT22;14685;50.618;7.024;2023-11-21T04:52:31;12.30;99.90
27164;DHT22;14685;50.618;7.024;2023-11-21T04:54:59;12.30;99.90
27164;DHT22;14685;50.618;7.024;2023-11-21T04:57:28;12.30;99.90
27164;DHT22;14685;50.618;7.024;2023-11-21T04:59:57;12.30;99.90
27164;DHT22;14685;50.618;7.024;2023-11-21T05:02:24;12.30;99.90
27164;DHT22;14685;50.618;7.024;2023-11-21T05:05:02;12.30;99.90
27164;DHT22;14685;50.618;7.024;2023-11-21T05:07:30;12.30;99.90
27164;DHT22;14685;50.618;7.024;2023-11-21T05:09:58;12.30;99.90
27164;DHT22;14685;50.618;7.024;2023-11-21T05:12:26;12.30;99.90
27164;DHT22;14685;50.618;7.024;2023-11-21T05:14:53;12.30;99.90
27164;DHT22;14685;50.618;7.024;2023-11-21T05:17:20;12.30;99.90
27164;DHT22;14685;50.618;7.024;2023-11-21T05:19:47;12.30;99.90
27164;DHT22;14685;50.618;7.024;2023-11-21T05:22:16;12.30;99.90
27164;DHT22;14685;50.618;7.024;2023-11-21T05:24:43;12.30;99.90
27164;DHT22;14685;50.618;7.024;2023-11-21T05:27:10;12.30;99.90
27164;DHT22;14685;50.618;7.024;2023-11-21T05:29:38;12.30;99.90
27164;DHT22;14685;50.618;7.024;2023-11-21T05:32:05;12.30;99.90
27164;DHT22;14685;50.618;7.024;2023-11-21T05:34:32;12.40;99.90
27164;DHT22;14685;50.618;7.024;2023-11-21T05:36:59;12.30;99.90
27164;DHT22;14685;50.618;7.024;2023-11-21T05:39:26;12.40;99.90
27164;DHT22;14685;50.618;7.024;2023-11-21T05:41:56;12.40;99.90
27164;DHT22;14685;50.618;7.024;2023-11-21T05:44:29;12.40;99.90
27164;DHT22;14685;50.618;7.024;2023-11-21T05:46:56;12.30;99.90
27164;DHT22;14685;50.618;7.024;2023-11-21T05:49:25;12.30;99.90
27164;DHT22;14685;50.618;7.024;2023-11-21T05:51:56;12.30;99.90
27164;DHT22;14685;50.618;7.024;2023-11-21T05:54:25;12.30;99.90
27164;DHT22;14685;50.618;7.024;2023-11-21T05:56:52;12.40;99.90
27164;DHT22;14685;50.618;7.024;2023-11-21T05:59:19;12.40;99.90
27164;DHT22;14685;50.618;7.024;2023-11-21T06:01:50;12.40;99.90
27164;DHT22;14685;50.618;7.024;2023-11-21T06:04:17;12.40;99.90
27164;DHT22;14685;50.618;7.024;2023-11-21T06:06:45;12.40;99.90
27164;DHT22;14685;50.618;7.024;2023-11-21T06:09:12;12.40;99.90
27164;DHT22;14685;50.618;7.024;2023-11-21T06:11:40;12.40;99.90
27164;DHT22;14685;50.618;7.024;2023-11-21T06:14:08;12.40;99.90
27164;DHT22;14685;50.618;7.024;2023-11-21T06:16:36;12.40;99.90
27164;DHT22;14685;50.618;7.024;2023-11-21T06:19:03;12.30;99.90
27164;DHT22;14685;50.618;7.024;2023-11-21T06:21:33;12.30;99.90
27164;DHT22;14685;50.618;7.024;2023-11-21T06:24:01;12.30;99.90
27164;DHT22;14685;50.618;7.024;2023-11-21T06:26:28;12.30;99.90
27164;DHT22;14685;50.618;7.024;2023-11-21T06:28:57;12.30;99.90
27164;DHT22;14685;50.618;7.024;2023-11-21T06:31:24;12.30;99.90
27164;DHT22;14685;50.618;7.024;2023-11-21T06:33:51;12.30;99.90
27164;DHT22;14685;50.618;7.024;2023-11-21T06:36:19;12.30;99.90
27164;DHT22;14685;50.618;7.024;2023-11-21T06:38:47;12.30;99.90
27164;DHT22;14685;50.618;7.024;2023-11-21T06:41:14;12.30;99.90
27164;DHT22;14685;50.618;7.024;2023-11-21T06:43:42;12.30;99.90
27164;DHT22;14685;50.618;7.024;2023-11-21T06:46:13;12.30;99.90
27164;DHT22;14685;50.618;7.024;2023-11-21T06:48:45;12.30;99.90
27164;DHT22;14685;50.618;7.024;2023-11-21T06:51:15;12.20;99.90
27164;DHT22;14685;50.618;7.024;2023-11-21T06:53:42;12.20;99.90
27164;DHT22;14685;50.618;7.024;2023-11-21T06:56:16;12.20;99.90
27164;DHT22;14685;50.618;7.024;2023-11-21T06:58:46;12.20;99.90
27164;DHT22;14685;50.618;7.024;2023-11-21T07:01:13;12.20;99.90
27164;DHT22;14685;50.618;7.024;2023-11-21T07:03:41;12.20;99.90
27164;DHT22;14685;50.618;7.024;2023-11-21T07:06:08;12.20;99.90
27164;DHT22;14685;50.618;7.024;2023-11-21T07:08:37;12.20;99.90
27164;DHT22;14685;50.618;7.024;2023-11-21T07:11:04;12.20;99.90
27164;DHT22;14685;50.618;7.024;2023-11-21T07:13:31;12.20;99.90
27164;DHT22;14685;50.618;7.024;2023-11-21T07:15:59;12.20;99.90
27164;DHT22;14685;50.618;7.024;2023-11-21T07:18:27;12.20;99.90
27164;DHT22;14685;50.618;7.024;2023-11-21T07:20:55;12.20;99.90
27164;DHT22;14685;50.618;7.024;2023-11-21T07:23:23;12.20;99.90
27164;DHT22;14685;50.618;7.024;2023-11-21T07:25:50;12.20;99.90
27164;DHT22;14685;50.618;7.024;2023-11-21T07:28:18;12.20;99.90
27164;DHT22;14685;50.618;7.024;2023-11-21T07:30:47;12.20;99.90
27164;DHT22;14685;50.618;7.024;2023-11-21T07:33:13;12.20;99.90
27164;DHT22;14685;50.618;7.024;2023-11-21T07:35:40;12.20;99.90
27164;DHT22;14685;50.618;7.024;2023-11-21T07:38:07;12.20;99.90
27164;DHT22;14685;50.618;7.024;2023-11-21T07:40:34;12.20;99.90
27164;DHT22;14685;50.618;7.024;2023-11-21T07:43:06;12.20;99.90
27164;DHT22;14685;50.618;7.024;2023-11-21T07:45:33;12.20;99.90
27164;DHT22;14685;50.618;7.024;2023-11-21T07:48:00;12.20;99.90
27164;DHT22;14685;50.618;7.024;2023-11-21T07:50:32;12.20;99.90
27164;DHT22;14685;50.618;7.024;2023-11-21T07:52:59;12.20;99.90
27164;DHT22;14685;50.618;7.024;2023-11-21T07:55:26;12.20;99.90
27164;DHT22;14685;50.618;7.024;2023-11-21T07:57:53;12.20;99.90
27164;DHT22;14685;50.618;7.024;2023-11-21T08:00:20;12.20;99.90
27164;DHT22;14685;50.618;7.024;2023-11-21T08:02:47;12.20;99.90
27164;DHT22;14685;50.618;7.024;2023-11-21T08:05:15;12.20;99.90
27164;DHT22;14685;50.618;7.024;2023-11-21T08:07:53;12.20;99.90
27164;DHT22;14685;50.618;7.024;2023-11-21T08:10:20;12.20;99.90
27164;DHT22;14685;50.618;7.024;2023-11-21T08:12:48;12.30;99.90
27164;DHT22;14685;50.618;7.024;2023-11-21T08:15:17;12.30;99.90
27164;DHT22;14685;50.618;7.024;2023-11-21T08:17:44;12.30;99.90
27164;DHT22;14685;50.618;7.024;2023-11-21T08:20:11;12.30;99.90
27164;DHT22;14685;50.618;7.024;2023-11-21T08:22:39;12.30;99.90
27164;DHT22;14685;50.618;7.024;2023-11-21T08:25:08;12.30;99.90
27164;DHT22;14685;50.618;7.024;2023-11-21T08:27:41;12.30;99.90
27164;DHT22;14685;50.618;7.024;2023-11-21T08:30:12;12.30;99.90
27164;DHT22;14685;50.618;7.024;2023-11-21T08:32:41;12.30;99.90
27164;DHT22;14685;50.618;7.024;2023-11-21T08:35:08;12.30;99.90
27164;DHT22;14685;50.618;7.024;2023-11-21T08:37:36;12.40;99.90
27164;DHT22;14685;50.618;7.024;2023-11-21T08:40:06;12.40;99.90
27164;DHT22;14685;50.618;7.024;2023-11-21T08:42:36;12.40;99.90
27164;DHT22;14685;50.618;7.024;2023-11-21T08:45:04;12.40;99.90
27164;DHT22;14685;50.618;7.024;2023-11-21T08:47:32;12.40;99.90
27164;DHT22;14685;50.618;7.024;2023-11-21T08:49:59;12.40;99.90
27164;DHT22;14685;50.618;7.024;2023-11-21T08:52:26;12.50;99.90
27164;DHT22;14685;50.618;7.024;2023-11-21T08:54:53;12.50;99.90
27164;DHT22;14685;50.618;7.024;2023-11-21T08:57:23;12.40;99.90
27164;DHT22;14685;50.618;7.024;2023-11-21T08:59:50;12.50;99.90
27164;DHT22;14685;50.618;7.024;2023-11-21T09:02:23;12.50;99.90
27164;DHT22;14685;50.618;7.024;2023-11-21T09:04:50;12.50;99.90
27164;DHT22;14685;50.618;7.024;2023-11-21T09:07:19;12.50;99.90
27164;DHT22;14685;50.618;7.024;2023-11-21T09:09:49;12.50;99.90
27164;DHT22;14685;50.618;7.024;2023-11-21T09:12:17;12.50;99.90
27164;DHT22;14685;50.618;7.024;2023-11-21T09:14:46;12.50;99.90
27164;DHT22;14685;50.618;7.024;2023-11-21T09:17:13;12.50;99.90
27164;DHT22;14685;50.618;7.024;2023-11-21T09:19:41;12.50;99.90
27164;DHT22;14685;50.618;7.024;2023-11-21T09:22:10;12.50;99.90
27164;DHT22;14685;50.618;7.024;2023-11-21T09:24:37;12.60;99.90
27164;DHT22;14685;50.618;7.024;2023-11-21T09:27:06;12.50;99.90
27164;DHT22;14685;50.618;7.024;2023-11-21T09:29:33;12.50;99.90
27164;DHT22;14685;50.618;7.024;2023-11-21T09:32:00;12.50;99.90
27164;DHT22;14685;50.618;7.024;2023-11-21T09:34:28;12.60;99.90
27164;DHT22;14685;50.618;7.024;2023-11-21T09:36:56;12.60;99.90
27164;DHT22;14685;50.618;7.024;2023-11-21T09:39:23;12.60;99.90
27164;DHT22;14685;50.618;7.024;2023-11-21T09:41:52;12.60;99.90
27164;DHT22;14685;50.618;7.024;2023-11-21T09:44:35;12.60;99.90
27164;DHT22;14685;50.618;7.024;2023-11-21T09:47:04;12.60;99.90
27164;DHT22;14685;50.618;7.024;2023-11-21T09:49:33;12.60;99.90
27164;DHT22;14685;50.618;7.024;2023-11-21T09:52:01;12.60;99.90
27164;DHT22;14685;50.618;7.024;2023-11-21T09:54:31;12.80;99.90
27164;DHT22;14685;50.618;7.024;2023-11-21T09:57:02;12.70;99.90
27164;DHT22;14685;50.618;7.024;2023-11-21T09:59:31;12.70;99.90
27164;DHT22;14685;50.618;7.024;2023-11-21T10:02:00;12.70;99.90
27164;DHT22;14685;50.618;7.024;2023-11-21T10:04:30;12.70;99.90
27164;DHT22;14685;50.618;7.024;2023-11-21T10:06:57;12.80;99.90
27164;DHT22;14685;50.618;7.024;2023-11-21T10:09:26;12.80;99.90
27164;DHT22;14685;50.618;7.024;2023-11-21T10:11:55;12.80;99.90
27164;DHT22;14685;50.618;7.024;2023-11-21T10:14:24;12.80;99.90
27164;DHT22;14685;50.618;7.024;2023-11-21T10:16:53;12.80;99.90
27164;DHT22;14685;50.618;7.024;2023-11-21T10:19:21;12.80;99.90
27164;DHT22;14685;50.618;7.024;2023-11-21T10:21:49;12.80;99.90
27164;DHT22;14685;50.618;7.024;2023-11-21T10:24:16;12.80;99.90
27164;DHT22;14685;50.618;7.024;2023-11-21T10:26:44;12.80;99.90
27164;DHT22;14685;50.618;7.024;2023-11-21T10:29:19;12.80;99.90
27164;DHT22;14685;50.618;7.024;2023-11-21T10:31:50;12.90;99.90
27164;DHT22;14685;50.618;7.024;2023-11-21T10:34:19;12.90;99.90
27164;DHT22;14685;50.618;7.024;2023-11-21T10:36:46;12.90;99.90
27164;DHT22;14685;50.618;7.024;2023-11-21T10:39:17;12.90;99.90
27164;DHT22;14685;50.618;7.024;2023-11-21T10:41:47;12.90;99.90
27164;DHT22;14685;50.618;7.024;2023-11-21T10:44:15;12.90;99.90
27164;DHT22;14685;50.618;7.024;2023-11-21T10:46:51;12.90;99.90
27164;DHT22;14685;50.618;7.024;2023-11-21T10:49:21;12.90;99.90
27164;DHT22;14685;50.618;7.024;2023-11-21T10:51:48;13.00;99.90
27164;DHT22;14685;50.618;7.024;2023-11-21T10:54:23;13.00;99.90
27164;DHT22;14685;50.618;7.024;2023-11-21T10:56:55;13.00;99.90
27164;DHT22;14685;50.618;7.024;2023-11-21T10:59:23;13.00;99.90
27164;DHT22;14685;50.618;7.024;2023-11-21T11:01:52;13.00;99.90
27164;DHT22;14685;50.618;7.024;2023-11-21T11:04:25;13.10;99.90
27164;DHT22;14685;50.618;7.024;2023-11-21T11:07:02;13.10;99.90
27164;DHT22;14685;50.618;7.024;2023-11-21T11:09:32;13.10;99.90
27164;DHT22;14685;50.618;7.024;2023-11-21T11:12:02;13.10;99.90
27164;DHT22;14685;50.618;7.024;2023-11-21T11:14:32;13.10;99.90
27164;DHT22;14685;50.618;7.024;2023-11-21T11:17:01;13.10;99.90
27164;DHT22;14685;50.618;7.024;2023-11-21T11:19:29;13.20;99.90
27164;DHT22;14685;50.618;7.024;2023-11-21T11:22:11;13.20;99.90
27164;DHT22;14685;50.618;7.024;2023-11-21T11:24:58;13.20;99.90
27164;DHT22;14685;50.618;7.024;2023-11-21T11:27:48;13.20;99.90
27164;DHT22;14685;50.618;7.024;2023-11-21T11:33:31;13.20;99.90
27164;DHT22;14685;50.618;7.024;2023-11-21T11:38:35;13.20;99.90
27164;DHT22;14685;50.618;7.024;2023-11-21T11:41:04;13.20;99.90
27164;DHT22;14685;50.618;7.024;2023-11-21T11:43:32;13.20;99.90
27164;DHT22;14685;50.618;7.024;2023-11-21T11:46:11;13.20;99.90
27164;DHT22;14685;50.618;7.024;2023-11-21T11:48:42;13.30;99.90
27164;DHT22;14685;50.618;7.024;2023-11-21T11:51:14;13.30;99.90
27164;DHT22;14685;50.618;7.024;2023-11-21T11:53:42;13.30;99.90
27164;DHT22;14685;50.618;7.024;2023-11-21T11:58:55;13.30;99.90
27164;DHT22;14685;50.618;7.024;2023-11-21T12:01:25;13.30;99.90
27164;DHT22;14685;50.618;7.024;2023-11-21T12:06:42;13.30;99.90
27164;DHT22;14685;50.618;7.024;2023-11-21T12:09:19;13.30;99.90
27164;DHT22;14685;50.618;7.024;2023-11-21T12:11:49;13.30;99.90
27164;DHT22;14685;50.618;7.024;2023-11-21T12:14:16;13.40;99.90
27164;DHT22;14685;50.618;7.024;2023-11-21T12:16:45;13.40;99.90
27164;DHT22;14685;50.618;7.024;2023-11-21T12:19:12;13.40;99.90
27164;DHT22;14685;50.618;7.024;2023-11-21T12:21:39;13.40;99.90
27164;DHT22;14685;50.618;7.024;2023-11-21T12:24:12;13.40;99.90
27164;DHT22;14685;50.618;7.024;2023-11-21T12:26:42;13.40;99.90
27164;DHT22;14685;50.618;7.024;2023-11-21T12:29:11;13.40;99.90
27164;DHT22;14685;50.618;7.024;2023-11-21T12:31:38;13.40;99.90
27164;DHT22;14685;50.618;7.024;2023-11-21T12:34:05;13.40;99.90
27164;DHT22;14685;50.618;7.024;2023-11-21T12:36:34;13.40;99.90
27164;DHT22;14685;50.618;7.024;2023-11-21T12:39:02;13.50;99.90
27164;DHT22;14685;50.618;7.024;2023-11-21T12:41:30;13.50;99.90
27164;DHT22;14685;50.618;7.024;2023-11-21T12:43:57;13.40;99.90
27164;DHT22;14685;50.618;7.024;2023-11-21T12:46:26;13.40;99.90
27164;DHT22;14685;50.618;7.024;2023-11-21T12:48:57;13.50;99.90
27164;DHT22;14685;50.618;7.024;2023-11-21T12:51:25;13.50;99.90
27164;DHT22;14685;50.618;7.024;2023-11-21T12:53:52;13.50;99.90
27164;DHT22;14685;50.618;7.024;2023-11-21T12:56:21;13.60;99.90
27164;DHT22;14685;50.618;7.024;2023-11-21T12:58:54;13.50;99.90
27164;DHT22;14685;50.618;7.024;2023-11-21T13:01:30;13.50;99.90
27164;DHT22;14685;50.618;7.024;2023-11-21T13:03:58;13.50;99.90
27164;DHT22;14685;50.618;7.024;2023-11-21T13:06:29;13.50;99.90
27164;DHT22;14685;50.618;7.024;2023-11-21T13:09:01;13.60;99.90
27164;DHT22;14685;50.618;7.024;2023-11-21T13:11:28;13.60;99.90
27164;DHT22;14685;50.618;7.024;2023-11-21T13:13:58;13.60;99.90
27164;DHT22;14685;50.618;7.024;2023-11-21T13:16:27;13.60;99.90
27164;DHT22;14685;50.618;7.024;2023-11-21T13:18:54;13.60;99.90
27164;DHT22;14685;50.618;7.024;2023-11-21T13:21:21;13.60;99.90
27164;DHT22;14685;50.618;7.024;2023-11-21T13:23:49;13.60;99.90
27164;DHT22;14685;50.618;7.024;2023-11-21T13:26:18;13.60;99.90
27164;DHT22;14685;50.618;7.024;2023-11-21T13:28:48;13.60;99.90
27164;DHT22;14685;50.618;7.024;2023-11-21T13:31:15;13.70;99.90
27164;DHT22;14685;50.618;7.024;2023-11-21T13:33:49;13.60;99.90
27164;DHT22;14685;50.618;7.024;2023-11-21T13:36:24;13.60;99.90
27164;DHT22;14685;50.618;7.024;2023-11-21T13:38:52;13.60;99.90
27164;DHT22;14685;50.618;7.024;2023-11-21T13:41:20;13.60;99.90
27164;DHT22;14685;50.618;7.024;2023-11-21T13:43:55;13.60;99.90
27164;DHT22;14685;50.618;7.024;2023-11-21T13:46:30;13.70;99.90
27164;DHT22;14685;50.618;7.024;2023-11-21T13:49:04;13.60;99.90
27164;DHT22;14685;50.618;7.024;2023-11-21T13:51:37;13.60;99.90
27164;DHT22;14685;50.618;7.024;2023-11-21T13:54:10;13.60;99.90
27164;DHT22;14685;50.618;7.024;2023-11-21T13:56:38;13.60;99.90
27164;DHT22;14685;50.618;7.024;2023-11-21T13:59:08;13.60;99.90
27164;DHT22;14685;50.618;7.024;2023-11-21T14:01:48;13.50;99.90
27164;DHT22;14685;50.618;7.024;2023-11-21T14:04:18;13.50;99.90
27164;DHT22;14685;50.618;7.024;2023-11-21T14:06:49;13.50;99.90
27164;DHT22;14685;50.618;7.024;2023-11-21T14:09:18;13.50;99.90
27164;DHT22;14685;50.618;7.024;2023-11-21T14:11:53;13.50;99.90
27164;DHT22;14685;50.618;7.024;2023-11-21T14:14:22;13.50;99.90
27164;DHT22;14685;50.618;7.024;2023-11-21T14:16:51;13.50;99.90
27164;DHT22;14685;50.618;7.024;2023-11-21T14:19:18;13.50;99.90
27164;DHT22;14685;50.618;7.024;2023-11-21T14:21:46;13.50;99.90
27164;DHT22;14685;50.618;7.024;2023-11-21T14:24:15;13.50;99.90
27164;DHT22;14685;50.618;7.024;2023-11-21T14:26:46;13.50;99.90
27164;DHT22;14685;50.618;7.024;2023-11-21T14:29:18;13.50;99.90
27164;DHT22;14685;50.618;7.024;2023-11-21T14:31:50;13.50;99.90
27164;DHT22;14685;50.618;7.024;2023-11-21T14:34:18;13.50;99.90
27164;DHT22;14685;50.618;7.024;2023-11-21T14:36:49;13.50;99.90
27164;DHT22;14685;50.618;7.024;2023-11-21T14:39:17;13.50;99.90
27164;DHT22;14685;50.618;7.024;2023-11-21T14:41:51;13.60;99.90
27164;DHT22;14685;50.618;7.024;2023-11-21T14:44:20;13.50;99.90
27164;DHT22;14685;50.618;7.024;2023-11-21T14:46:50;13.50;99.90
27164;DHT22;14685;50.618;7.024;2023-11-21T14:49:24;13.50;99.90
27164;DHT22;14685;50.618;7.024;2023-11-21T14:51:54;13.50;99.90
27164;DHT22;14685;50.618;7.024;2023-11-21T14:54:32;13.50;99.90
27164;DHT22;14685;50.618;7.024;2023-11-21T14:57:10;13.50;99.90
27164;DHT22;14685;50.618;7.024;2023-11-21T14:59:46;13.50;99.90
27164;DHT22;14685;50.618;7.024;2023-11-21T15:02:19;13.50;99.90
27164;DHT22;14685;50.618;7.024;2023-11-21T15:05:10;13.50;99.90
27164;DHT22;14685;50.618;7.024;2023-11-21T15:07:45;13.50;99.90
27164;DHT22;14685;50.618;7.024;2023-11-21T15:10:12;13.50;99.90
27164;DHT22;14685;50.618;7.024;2023-11-21T15:12:43;13.50;99.90
27164;DHT22;14685;50.618;7.024;2023-11-21T15:15:11;13.50;99.90
27164;DHT22;14685;50.618;7.024;2023-11-21T15:17:41;13.50;99.90
27164;DHT22;14685;50.618;7.024;2023-11-21T15:20:11;13.50;99.90
27164;DHT22;14685;50.618;7.024;2023-11-21T15:22:46;13.50;99.90
27164;DHT22;14685;50.618;7.024;2023-11-21T15:25:14;13.50;99.90
27164;DHT22;14685;50.618;7.024;2023-11-21T15:27:41;13.40;99.90
27164;DHT22;14685;50.618;7.024;2023-11-21T15:30:12;13.40;99.90
27164;DHT22;14685;50.618;7.024;2023-11-21T15:32:39;13.40;99.90
27164;DHT22;14685;50.618;7.024;2023-11-21T15:35:06;13.40;99.90
27164;DHT22;14685;50.618;7.024;2023-11-21T15:37:38;13.40;99.90
27164;DHT22;14685;50.618;7.024;2023-11-21T15:40:05;13.40;99.90
27164;DHT22;14685;50.618;7.024;2023-11-21T15:42:32;13.40;99.90
27164;DHT22;14685;50.618;7.024;2023-11-21T15:45:01;13.40;99.90
27164;DHT22;14685;50.618;7.024;2023-11-21T15:47:29;13.40;99.90
27164;DHT22;14685;50.618;7.024;2023-11-21T15:49:56;13.40;99.90
27164;DHT22;14685;50.618;7.024;2023-11-21T15:52:23;13.40;99.90